Main page
METAR-TAF:

METAR-TAF

Airports :

Plovdiv, Bulgaria

Plovdiv Airport

latitude: 42-08N, longitude: 024-45E, elevation: 179 m

Current weather observation

The report was made 15 minutes ago, at 04:30 UTC
Wind 4 kt from the Southwest, varying between South and West/Southwest
Temperature 15°C
Humidity 55%
Pressure 1020 hPa
Visibility 10 km or more

METAR: LBPD 240430Z AUTO 22004KT 180V250 9999 NCD 15/06 Q1020 NOSIG

Time: 07:45 (04:45 UTC)

Forecast

The report was made 5 hours and 45 minutes ago, at 23:00 UTC
Forecast valid from 24 at 00 UTC to 24 at 24 UTC
Wind 8 kt from the West
Visibility 10 km or more
no clouds below 1500 m and no cumulonimbus

TAF: LBPD 232300Z 2400/2424 28008KT CAVOK

Weather observations and forecasts of more than 4000 airports (METAR and TAF reports).

The available stations are represented by yellow and red dots on the map.

Hover mouse over dot to see the name of the station.

Then click to see weather observations and forecasts.

To change the map : click on the green buttons with a black cross to zoom in, on the green button with a dash to zoom out, or on the green arrows for adjacent maps.


METAR-TAF: